Accueil
METAR-TAF:

METAR-TAF

Aéroports :

Base aérienne Cameri

Novare, Italie

latitude: 45-31N, longitude: 008-40E, altitude: 178 m

Observation

Le bulletin a été fait il y a 50 minutes, à 12:55 UTC
Température 0°C
Humidité 93%
Pression 1025 hPa
Visibilité: 0200 m
brouillard givrant

METAR: LIMN 271255Z /////KT 0200 FZFG VV001 M00/M01 Q1025 RMK VIS MIN 0200 RED

Heure: 14:45 (13:45 UTC)

Prévision

Le bulletin a été fait il y a 2 heures et 45 minutes, à 11:00 UTC
Prévision valable du 27 à 12 UTC au 27 à 21 UTC
Vent 3 kt de direction variable
Visibilité: 0100 m
Ciel couvert à une hauteur de 100 ft
brouillard
Evoluant progressivement
du 27 à 12 UTC au 27 à 14 UTC
Visibilité: 2000 m
brume
Evoluant progressivement
du 27 à 17 UTC au 27 à 19 UTC
Vent 6 kt de ouest

TAF: LIMN 271100Z 2712/2721 VRB03KT 0100 FG OVC001 BECMG 2712/2714 2000 BR NSC BECMG 2717/2719 28006KT

Observations et prévisions météorologiques de plus de 4000 aéroports (messages METAR et TAF).

Les stations disponibles sont représentées par des disques jaunes et rouges sur la carte.

Passer la souris dessus pour voir le nom de la station.

Cliquer dessus pour voir les observations et prévisions météorologiques.

Pour changer de carte: cliquez sur les boutons verts avec une croix noire pour zoomer, sur le bouton vert avec un tiret pour effectuer un zoom arrière, ou sur les flèches vertes pour les cartes adjacentes.


METAR-TAF: